sensor_id;sensor_type;location;lat;lon;timestamp;P1;durP1;ratioP1;P2;durP2;ratioP2
41761;SDS011;27441;50.860;0.258;2023-03-01T00:00:38;0.00;;;0.00;;
41761;SDS011;27441;50.860;0.258;2023-03-01T00:03:04;0.00;;;0.00;;
41761;SDS011;27441;50.860;0.258;2023-03-01T00:05:31;0.00;;;0.00;;
41761;SDS011;27441;50.860;0.258;2023-03-01T00:07:57;0.00;;;0.00;;
41761;SDS011;27441;50.860;0.258;2023-03-01T00:10:23;0.00;;;0.00;;
41761;SDS011;27441;50.860;0.258;2023-03-01T00:12:50;0.00;;;0.00;;
41761;SDS011;27441;50.860;0.258;2023-03-01T00:15:16;0.00;;;0.00;;
41761;SDS011;27441;50.860;0.258;2023-03-01T00:17:42;0.00;;;0.00;;
41761;SDS011;27441;50.860;0.258;2023-03-01T00:20:09;0.00;;;0.00;;
41761;SDS011;27441;50.860;0.258;2023-03-01T00:22:35;0.00;;;0.00;;
41761;SDS011;27441;50.860;0.258;2023-03-01T00:25:02;0.00;;;0.00;;
41761;SDS011;27441;50.860;0.258;2023-03-01T00:27:28;0.00;;;0.00;;
41761;SDS011;27441;50.860;0.258;2023-03-01T00:29:54;0.00;;;0.00;;
41761;SDS011;27441;50.860;0.258;2023-03-01T00:32:20;0.00;;;0.00;;
41761;SDS011;27441;50.860;0.258;2023-03-01T00:34:46;0.00;;;0.00;;
41761;SDS011;27441;50.860;0.258;2023-03-01T00:37:21;0.00;;;0.00;;
41761;SDS011;27441;50.860;0.258;2023-03-01T00:39:48;0.00;;;0.00;;
41761;SDS011;27441;50.860;0.258;2023-03-01T00:42:14;0.00;;;0.00;;
41761;SDS011;27441;50.860;0.258;2023-03-01T00:44:40;0.00;;;0.00;;
41761;SDS011;27441;50.860;0.258;2023-03-01T00:47:06;0.00;;;0.00;;
41761;SDS011;27441;50.860;0.258;2023-03-01T00:49:32;0.00;;;0.00;;
41761;SDS011;27441;50.860;0.258;2023-03-01T00:51:58;0.00;;;0.00;;
41761;SDS011;27441;50.860;0.258;2023-03-01T00:54:25;0.00;;;0.00;;
41761;SDS011;27441;50.860;0.258;2023-03-01T00:56:51;0.00;;;0.00;;
41761;SDS011;27441;50.860;0.258;2023-03-01T00:59:17;0.00;;;0.00;;
41761;SDS011;27441;50.860;0.258;2023-03-01T01:01:43;0.00;;;0.00;;
41761;SDS011;27441;50.860;0.258;2023-03-01T01:04:10;0.00;;;0.00;;
41761;SDS011;27441;50.860;0.258;2023-03-01T01:06:41;0.00;;;0.00;;
41761;SDS011;27441;50.860;0.258;2023-03-01T01:09:08;0.00;;;0.00;;
41761;SDS011;27441;50.860;0.258;2023-03-01T01:11:34;0.00;;;0.00;;
41761;SDS011;27441;50.860;0.258;2023-03-01T01:14:01;0.00;;;0.00;;
41761;SDS011;27441;50.860;0.258;2023-03-01T01:16:28;0.00;;;0.00;;
41761;SDS011;27441;50.860;0.258;2023-03-01T01:18:55;0.00;;;0.00;;
41761;SDS011;27441;50.860;0.258;2023-03-01T01:21:22;0.00;;;0.00;;
41761;SDS011;27441;50.860;0.258;2023-03-01T01:23:49;0.00;;;0.00;;
41761;SDS011;27441;50.860;0.258;2023-03-01T01:26:20;1076.18;;;604.38;;
41761;SDS011;27441;50.860;0.258;2023-03-01T01:28:46;979.23;;;398.30;;
41761;SDS011;27441;50.860;0.258;2023-03-01T01:31:12;789.60;;;165.20;;
41761;SDS011;27441;50.860;0.258;2023-03-01T01:33:39;1336.60;;;428.95;;
41761;SDS011;27441;50.860;0.258;2023-03-01T01:36:05;1478.35;;;547.20;;
41761;SDS011;27441;50.860;0.258;2023-03-01T01:38:31;265.98;;;78.60;;
41761;SDS011;27441;50.860;0.258;2023-03-01T01:40:58;278.20;;;70.65;;
41761;SDS011;27441;50.860;0.258;2023-03-01T01:43:28;490.70;;;260.98;;
41761;SDS011;27441;50.860;0.258;2023-03-01T01:45:55;1999.90;;;860.00;;
41761;SDS011;27441;50.860;0.258;2023-03-01T01:48:24;19.95;;;18.40;;
41761;SDS011;27441;50.860;0.258;2023-03-01T01:53:31;1325.53;;;273.83;;
41761;SDS011;27441;50.860;0.258;2023-03-01T01:55:58;488.52;;;211.90;;
41761;SDS011;27441;50.860;0.258;2023-03-01T01:58:26;162.60;;;45.13;;
41761;SDS011;27441;50.860;0.258;2023-03-01T02:03:25;455.13;;;320.77;;
41761;SDS011;27441;50.860;0.258;2023-03-01T02:06:14;370.30;;;323.52;;
41761;SDS011;27441;50.860;0.258;2023-03-01T02:08:44;106.13;;;48.88;;
41761;SDS011;27441;50.860;0.258;2023-03-01T02:11:11;768.92;;;274.75;;
41761;SDS011;27441;50.860;0.258;2023-03-01T02:23:33;1545.50;;;433.50;;
41761;SDS011;27441;50.860;0.258;2023-03-01T02:28:35;372.67;;;89.65;;
41761;SDS011;27441;50.860;0.258;2023-03-01T02:48:25;1015.35;;;471.73;;
41761;SDS011;27441;50.860;0.258;2023-03-01T02:55:44;420.05;;;96.15;;
41761;SDS011;27441;50.860;0.258;2023-03-01T03:03:05;8.05;;;6.35;;
41761;SDS011;27441;50.860;0.258;2023-03-01T03:25:03;496.73;;;168.18;;
41761;SDS011;27441;50.860;0.258;2023-03-01T03:27:29;390.20;;;151.10;;
41761;SDS011;27441;50.860;0.258;2023-03-01T03:29:57;454.45;;;149.18;;
41761;SDS011;27441;50.860;0.258;2023-03-01T03:32:23;426.35;;;97.18;;
41761;SDS011;27441;50.860;0.258;2023-03-01T03:34:49;429.02;;;101.57;;
41761;SDS011;27441;50.860;0.258;2023-03-01T03:37:15;423.65;;;100.80;;
41761;SDS011;27441;50.860;0.258;2023-03-01T03:40:00;418.42;;;100.00;;
41761;SDS011;27441;50.860;0.258;2023-03-01T03:42:26;413.88;;;100.10;;
41761;SDS011;27441;50.860;0.258;2023-03-01T03:44:52;409.83;;;98.97;;
41761;SDS011;27441;50.860;0.258;2023-03-01T03:47:18;403.23;;;95.60;;
41761;SDS011;27441;50.860;0.258;2023-03-01T03:49:44;400.42;;;96.20;;
41761;SDS011;27441;50.860;0.258;2023-03-01T03:52:10;394.13;;;94.13;;
41761;SDS011;27441;50.860;0.258;2023-03-01T03:54:39;389.70;;;91.97;;
41761;SDS011;27441;50.860;0.258;2023-03-01T03:57:05;383.65;;;90.10;;
41761;SDS011;27441;50.860;0.258;2023-03-01T03:59:33;379.42;;;89.25;;
41761;SDS011;27441;50.860;0.258;2023-03-01T04:01:59;373.37;;;86.93;;
41761;SDS011;27441;50.860;0.258;2023-03-01T04:04:25;369.25;;;86.75;;
41761;SDS011;27441;50.860;0.258;2023-03-01T04:06:51;364.80;;;85.03;;
41761;SDS011;27441;50.860;0.258;2023-03-01T04:09:18;360.75;;;85.57;;
41761;SDS011;27441;50.860;0.258;2023-03-01T04:11:44;353.10;;;80.75;;
41761;SDS011;27441;50.860;0.258;2023-03-01T04:14:10;352.45;;;82.05;;
41761;SDS011;27441;50.860;0.258;2023-03-01T04:16:36;345.92;;;79.15;;
41761;SDS011;27441;50.860;0.258;2023-03-01T04:19:02;343.10;;;79.72;;
41761;SDS011;27441;50.860;0.258;2023-03-01T04:21:28;337.55;;;76.97;;
41761;SDS011;27441;50.860;0.258;2023-03-01T04:23:54;333.65;;;76.05;;
41761;SDS011;27441;50.860;0.258;2023-03-01T04:26:20;329.07;;;74.97;;
41761;SDS011;27441;50.860;0.258;2023-03-01T04:28:46;325.98;;;75.47;;
41761;SDS011;27441;50.860;0.258;2023-03-01T04:31:17;322.15;;;73.88;;
41761;SDS011;27441;50.860;0.258;2023-03-01T04:33:53;316.65;;;72.10;;
41761;SDS011;27441;50.860;0.258;2023-03-01T04:36:20;312.35;;;70.53;;
41761;SDS011;27441;50.860;0.258;2023-03-01T04:38:47;308.00;;;70.07;;
41761;SDS011;27441;50.860;0.258;2023-03-01T04:41:14;306.13;;;70.03;;
41761;SDS011;27441;50.860;0.258;2023-03-01T04:43:40;302.35;;;68.95;;
41761;SDS011;27441;50.860;0.258;2023-03-01T04:46:08;300.45;;;69.50;;
41761;SDS011;27441;50.860;0.258;2023-03-01T04:48:35;296.70;;;68.85;;
41761;SDS011;27441;50.860;0.258;2023-03-01T04:51:01;295.48;;;69.20;;
41761;SDS011;27441;50.860;0.258;2023-03-01T04:53:28;291.73;;;67.10;;
41761;SDS011;27441;50.860;0.258;2023-03-01T04:55:54;291.83;;;69.25;;
41761;SDS011;27441;50.860;0.258;2023-03-01T04:58:22;289.25;;;69.45;;
41761;SDS011;27441;50.860;0.258;2023-03-01T05:00:48;287.85;;;70.70;;
41761;SDS011;27441;50.860;0.258;2023-03-01T05:03:14;284.75;;;68.55;;
41761;SDS011;27441;50.860;0.258;2023-03-01T05:05:43;283.05;;;69.45;;
41761;SDS011;27441;50.860;0.258;2023-03-01T05:08:10;279.35;;;67.47;;
41761;SDS011;27441;50.860;0.258;2023-03-01T05:10:42;277.58;;;68.05;;
41761;SDS011;27441;50.860;0.258;2023-03-01T05:13:09;273.77;;;65.97;;
41761;SDS011;27441;50.860;0.258;2023-03-01T05:15:35;272.08;;;66.53;;
41761;SDS011;27441;50.860;0.258;2023-03-01T05:18:01;269.27;;;66.40;;
41761;SDS011;27441;50.860;0.258;2023-03-01T05:20:28;266.65;;;65.70;;
41761;SDS011;27441;50.860;0.258;2023-03-01T05:22:56;264.70;;;65.32;;
41761;SDS011;27441;50.860;0.258;2023-03-01T05:25:23;261.95;;;64.80;;
41761;SDS011;27441;50.860;0.258;2023-03-01T05:27:50;261.00;;;65.30;;
41761;SDS011;27441;50.860;0.258;2023-03-01T05:30:16;258.13;;;65.45;;
41761;SDS011;27441;50.860;0.258;2023-03-01T05:32:44;257.13;;;65.68;;
41761;SDS011;27441;50.860;0.258;2023-03-01T05:35:11;273.98;;;85.63;;
41761;SDS011;27441;50.860;0.258;2023-03-01T05:37:39;251.45;;;64.80;;
41761;SDS011;27441;50.860;0.258;2023-03-01T05:40:06;250.65;;;67.50;;
41761;SDS011;27441;50.860;0.258;2023-03-01T05:42:41;248.95;;;65.47;;
41761;SDS011;27441;50.860;0.258;2023-03-01T05:45:07;327.05;;;78.90;;
41761;SDS011;27441;50.860;0.258;2023-03-01T05:47:34;263.13;;;70.65;;
41761;SDS011;27441;50.860;0.258;2023-03-01T05:50:01;243.02;;;66.43;;
41761;SDS011;27441;50.860;0.258;2023-03-01T05:52:27;436.90;;;88.75;;
41761;SDS011;27441;50.860;0.258;2023-03-01T05:54:53;568.35;;;115.22;;
41761;SDS011;27441;50.860;0.258;2023-03-01T05:57:20;280.02;;;87.00;;
41761;SDS011;27441;50.860;0.258;2023-03-01T05:59:46;7.90;;;7.30;;
41761;SDS011;27441;50.860;0.258;2023-03-01T06:02:12;18.45;;;11.82;;
41761;SDS011;27441;50.860;0.258;2023-03-01T06:04:38;236.40;;;68.35;;
41761;SDS011;27441;50.860;0.258;2023-03-01T06:07:04;235.20;;;67.72;;
41761;SDS011;27441;50.860;0.258;2023-03-01T06:09:30;235.00;;;68.97;;
41761;SDS011;27441;50.860;0.258;2023-03-01T06:11:57;234.15;;;69.43;;
41761;SDS011;27441;50.860;0.258;2023-03-01T06:14:23;440.67;;;113.32;;
41761;SDS011;27441;50.860;0.258;2023-03-01T06:16:49;597.15;;;97.10;;
41761;SDS011;27441;50.860;0.258;2023-03-01T06:19:15;18.85;;;13.07;;
41761;SDS011;27441;50.860;0.258;2023-03-01T06:21:41;225.70;;;70.00;;
41761;SDS011;27441;50.860;0.258;2023-03-01T06:24:07;225.55;;;70.55;;
41761;SDS011;27441;50.860;0.258;2023-03-01T06:26:34;176.73;;;59.97;;
41761;SDS011;27441;50.860;0.258;2023-03-01T06:29:00;223.50;;;71.63;;
41761;SDS011;27441;50.860;0.258;2023-03-01T06:31:26;123.40;;;42.38;;
41761;SDS011;27441;50.860;0.258;2023-03-01T06:33:52;366.03;;;64.53;;
41761;SDS011;27441;50.860;0.258;2023-03-01T06:36:18;1377.87;;;171.23;;
41761;SDS011;27441;50.860;0.258;2023-03-01T06:41:12;217.13;;;74.13;;
41761;SDS011;27441;50.860;0.258;2023-03-01T06:43:38;949.05;;;124.63;;
41761;SDS011;27441;50.860;0.258;2023-03-01T06:46:04;1156.15;;;140.05;;
41761;SDS011;27441;50.860;0.258;2023-03-01T06:48:32;603.40;;;88.03;;
41761;SDS011;27441;50.860;0.258;2023-03-01T06:50:59;1206.50;;;137.27;;
41761;SDS011;27441;50.860;0.258;2023-03-01T06:53:26;1619.57;;;171.07;;
41761;SDS011;27441;50.860;0.258;2023-03-01T06:55:56;595.10;;;106.45;;
41761;SDS011;27441;50.860;0.258;2023-03-01T06:58:22;124.65;;;52.17;;
41761;SDS011;27441;50.860;0.258;2023-03-01T07:00:48;200.20;;;74.67;;
41761;SDS011;27441;50.860;0.258;2023-03-01T07:03:14;205.48;;;76.60;;
41761;SDS011;27441;50.860;0.258;2023-03-01T07:15:25;201.23;;;71.63;;
41761;SDS011;27441;50.860;0.258;2023-03-01T07:17:51;209.60;;;72.68;;
41761;SDS011;27441;50.860;0.258;2023-03-01T07:20:18;210.07;;;71.22;;
41761;SDS011;27441;50.860;0.258;2023-03-01T07:22:47;210.25;;;71.30;;
41761;SDS011;27441;50.860;0.258;2023-03-01T07:25:13;208.18;;;69.28;;
41761;SDS011;27441;50.860;0.258;2023-03-01T07:27:39;208.15;;;69.95;;
41761;SDS011;27441;50.860;0.258;2023-03-01T07:30:06;206.05;;;68.72;;
41761;SDS011;27441;50.860;0.258;2023-03-01T07:32:32;206.30;;;69.90;;
41761;SDS011;27441;50.860;0.258;2023-03-01T07:34:58;204.45;;;68.55;;
41761;SDS011;27441;50.860;0.258;2023-03-01T07:37:24;204.07;;;69.05;;
41761;SDS011;27441;50.860;0.258;2023-03-01T07:39:50;247.00;;;72.60;;
41761;SDS011;27441;50.860;0.258;2023-03-01T07:42:17;200.05;;;66.75;;
41761;SDS011;27441;50.860;0.258;2023-03-01T07:44:43;199.98;;;66.25;;
41761;SDS011;27441;50.860;0.258;2023-03-01T07:47:09;198.98;;;65.47;;
41761;SDS011;27441;50.860;0.258;2023-03-01T07:49:35;199.45;;;66.78;;
41761;SDS011;27441;50.860;0.258;2023-03-01T07:52:01;197.25;;;64.50;;
41761;SDS011;27441;50.860;0.258;2023-03-01T07:54:27;196.82;;;64.43;;
41761;SDS011;27441;50.860;0.258;2023-03-01T07:56:53;196.38;;;64.07;;
41761;SDS011;27441;50.860;0.258;2023-03-01T07:59:19;199.40;;;66.83;;
41761;SDS011;27441;50.860;0.258;2023-03-01T08:01:46;194.38;;;63.67;;
41761;SDS011;27441;50.860;0.258;2023-03-01T08:04:12;7.15;;;6.70;;
41761;SDS011;27441;50.860;0.258;2023-03-01T08:06:38;188.35;;;68.57;;
41761;SDS011;27441;50.860;0.258;2023-03-01T08:09:04;357.60;;;77.82;;
41761;SDS011;27441;50.860;0.258;2023-03-01T08:11:30;1.10;;;1.10;;
41761;SDS011;27441;50.860;0.258;2023-03-01T08:13:57;1.30;;;1.30;;
41761;SDS011;27441;50.860;0.258;2023-03-01T08:16:23;394.85;;;237.20;;
41761;SDS011;27441;50.860;0.258;2023-03-01T08:18:49;173.95;;;73.20;;
41761;SDS011;27441;50.860;0.258;2023-03-01T08:23:41;5.20;;;4.40;;
41761;SDS011;27441;50.860;0.258;2023-03-01T08:55:19;0.30;;;0.30;;
41761;SDS011;27441;50.860;0.258;2023-03-01T08:57:46;0.60;;;0.60;;
41761;SDS011;27441;50.860;0.258;2023-03-01T09:00:12;0.50;;;0.50;;
41761;SDS011;27441;50.860;0.258;2023-03-01T09:02:39;0.50;;;0.50;;
41761;SDS011;27441;50.860;0.258;2023-03-01T09:05:06;0.50;;;0.50;;
41761;SDS011;27441;50.860;0.258;2023-03-01T09:07:32;0.50;;;0.50;;
41761;SDS011;27441;50.860;0.258;2023-03-01T09:09:58;0.60;;;0.60;;
41761;SDS011;27441;50.860;0.258;2023-03-01T09:12:24;0.50;;;0.50;;
41761;SDS011;27441;50.860;0.258;2023-03-01T09:14:50;0.50;;;0.50;;
41761;SDS011;27441;50.860;0.258;2023-03-01T09:17:16;0.40;;;0.40;;
41761;SDS011;27441;50.860;0.258;2023-03-01T09:19:42;0.40;;;0.40;;
41761;SDS011;27441;50.860;0.258;2023-03-01T09:22:09;0.40;;;0.40;;
41761;SDS011;27441;50.860;0.258;2023-03-01T09:24:35;0.50;;;0.50;;
41761;SDS011;27441;50.860;0.258;2023-03-01T09:27:01;0.50;;;0.50;;
41761;SDS011;27441;50.860;0.258;2023-03-01T09:29:27;0.57;;;0.57;;
41761;SDS011;27441;50.860;0.258;2023-03-01T09:31:54;0.60;;;0.60;;
41761;SDS011;27441;50.860;0.258;2023-03-01T09:34:20;0.60;;;0.60;;
41761;SDS011;27441;50.860;0.258;2023-03-01T09:36:48;0.60;;;0.60;;
41761;SDS011;27441;50.860;0.258;2023-03-01T09:39:15;0.80;;;0.80;;
41761;SDS011;27441;50.860;0.258;2023-03-01T09:47:16;0.40;;;0.40;;
41761;SDS011;27441;50.860;0.258;2023-03-01T09:49:43;1.15;;;1.15;;
41761;SDS011;27441;50.860;0.258;2023-03-01T09:54:55;159.10;;;74.20;;
41761;SDS011;27441;50.860;0.258;2023-03-01T09:57:42;163.40;;;75.65;;
41761;SDS011;27441;50.860;0.258;2023-03-01T10:00:27;169.23;;;77.65;;
41761;SDS011;27441;50.860;0.258;2023-03-01T10:02:59;173.05;;;78.07;;
41761;SDS011;27441;50.860;0.258;2023-03-01T10:10:31;189.00;;;82.97;;
41761;SDS011;27441;50.860;0.258;2023-03-01T10:12:59;201.57;;;87.95;;
41761;SDS011;27441;50.860;0.258;2023-03-01T10:15:34;69.88;;;41.70;;
41761;SDS011;27441;50.860;0.258;2023-03-01T10:18:03;329.85;;;142.25;;
41761;SDS011;27441;50.860;0.258;2023-03-01T10:23:17;770.05;;;363.38;;
41761;SDS011;27441;50.860;0.258;2023-03-01T10:25:56;1187.07;;;581.63;;
41761;SDS011;27441;50.860;0.258;2023-03-01T10:30:58;1875.78;;;919.38;;
41761;SDS011;27441;50.860;0.258;2023-03-01T10:33:26;1873.63;;;913.80;;
41761;SDS011;27441;50.860;0.258;2023-03-01T10:38:19;1999.90;;;970.08;;
41761;SDS011;27441;50.860;0.258;2023-03-01T10:52:59;1999.90;;;896.10;;
41761;SDS011;27441;50.860;0.258;2023-03-01T10:55:27;1999.90;;;925.00;;
41761;SDS011;27441;50.860;0.258;2023-03-01T11:00:33;1999.90;;;999.90;;
41761;SDS011;27441;50.860;0.258;2023-03-01T11:03:12;1999.90;;;999.90;;
41761;SDS011;27441;50.860;0.258;2023-03-01T11:10:31;1999.90;;;999.90;;
41761;SDS011;27441;50.860;0.258;2023-03-01T11:13:08;1999.90;;;999.90;;
41761;SDS011;27441;50.860;0.258;2023-03-01T11:15:39;1999.90;;;999.90;;
41761;SDS011;27441;50.860;0.258;2023-03-01T11:18:05;1999.90;;;999.90;;
41761;SDS011;27441;50.860;0.258;2023-03-01T11:20:43;1999.90;;;999.90;;
41761;SDS011;27441;50.860;0.258;2023-03-01T11:28:02;1999.90;;;999.90;;
41761;SDS011;27441;50.860;0.258;2023-03-01T11:32:58;338.50;;;301.40;;
41761;SDS011;27441;50.860;0.258;2023-03-01T11:40:24;1985.30;;;866.30;;
41761;SDS011;27441;50.860;0.258;2023-03-01T11:52:52;1377.55;;;595.00;;
41761;SDS011;27441;50.860;0.258;2023-03-01T12:08:17;1999.90;;;919.60;;
41761;SDS011;27441;50.860;0.258;2023-03-01T12:44:01;1999.90;;;999.90;;
41761;SDS011;27441;50.860;0.258;2023-03-01T12:49:16;1999.90;;;999.90;;
41761;SDS011;27441;50.860;0.258;2023-03-01T12:52:08;1999.90;;;999.90;;
41761;SDS011;27441;50.860;0.258;2023-03-01T12:54:31;1999.90;;;950.97;;
41761;SDS011;27441;50.860;0.258;2023-03-01T12:57:01;1999.90;;;966.15;;
41761;SDS011;27441;50.860;0.258;2023-03-01T12:59:31;1999.90;;;804.80;;
41761;SDS011;27441;50.860;0.258;2023-03-01T13:02:19;1999.90;;;999.90;;
41761;SDS011;27441;50.860;0.258;2023-03-01T13:10:26;892.40;;;465.27;;
41761;SDS011;27441;50.860;0.258;2023-03-01T13:17:50;1999.90;;;964.40;;
41761;SDS011;27441;50.860;0.258;2023-03-01T13:20:18;496.80;;;396.90;;
41761;SDS011;27441;50.860;0.258;2023-03-01T13:25:12;199.55;;;98.80;;
41761;SDS011;27441;50.860;0.258;2023-03-01T13:27:38;182.98;;;97.68;;
41761;SDS011;27441;50.860;0.258;2023-03-01T13:30:11;1999.90;;;860.20;;
41761;SDS011;27441;50.860;0.258;2023-03-01T13:32:50;307.90;;;254.60;;
41761;SDS011;27441;50.860;0.258;2023-03-01T13:37:43;545.47;;;191.82;;
41761;SDS011;27441;50.860;0.258;2023-03-01T13:42:39;1216.70;;;644.15;;
41761;SDS011;27441;50.860;0.258;2023-03-01T13:47:41;93.95;;;85.60;;
41761;SDS011;27441;50.860;0.258;2023-03-01T13:57:30;12.23;;;11.43;;
41761;SDS011;27441;50.860;0.258;2023-03-01T13:59:59;292.70;;;246.60;;
41761;SDS011;27441;50.860;0.258;2023-03-01T14:02:25;94.60;;;85.63;;
41761;SDS011;27441;50.860;0.258;2023-03-01T14:07:21;1757.75;;;499.42;;
41761;SDS011;27441;50.860;0.258;2023-03-01T14:09:53;107.83;;;98.50;;
41761;SDS011;27441;50.860;0.258;2023-03-01T14:20:08;205.80;;;189.40;;
41761;SDS011;27441;50.860;0.258;2023-03-01T14:32:20;1682.10;;;221.90;;
41761;SDS011;27441;50.860;0.258;2023-03-01T14:34:47;161.20;;;147.55;;
41761;SDS011;27441;50.860;0.258;2023-03-01T14:37:18;204.93;;;112.15;;
41761;SDS011;27441;50.860;0.258;2023-03-01T14:42:11;67.80;;;62.33;;
41761;SDS011;27441;50.860;0.258;2023-03-01T14:54:25;1002.00;;;483.13;;
41761;SDS011;27441;50.860;0.258;2023-03-01T14:56:52;316.50;;;286.60;;
41761;SDS011;27441;50.860;0.258;2023-03-01T15:01:45;113.45;;;102.35;;
41761;SDS011;27441;50.860;0.258;2023-03-01T15:04:12;62.10;;;54.78;;
41761;SDS011;27441;50.860;0.258;2023-03-01T15:06:39;47.50;;;42.08;;
41761;SDS011;27441;50.860;0.258;2023-03-01T15:09:05;96.07;;;86.13;;
41761;SDS011;27441;50.860;0.258;2023-03-01T15:11:32;9.82;;;9.20;;
41761;SDS011;27441;50.860;0.258;2023-03-01T15:14:00;38.28;;;34.60;;
41761;SDS011;27441;50.860;0.258;2023-03-01T15:19:04;474.35;;;143.50;;
41761;SDS011;27441;50.860;0.258;2023-03-01T15:21:34;114.63;;;103.22;;
41761;SDS011;27441;50.860;0.258;2023-03-01T15:26:45;1179.45;;;174.25;;
41761;SDS011;27441;50.860;0.258;2023-03-01T15:31:42;1999.90;;;251.60;;
41761;SDS011;27441;50.860;0.258;2023-03-01T15:34:21;94.20;;;85.90;;
41761;SDS011;27441;50.860;0.258;2023-03-01T15:36:48;745.80;;;129.63;;
41761;SDS011;27441;50.860;0.258;2023-03-01T15:41:53;1999.90;;;660.15;;
41761;SDS011;27441;50.860;0.258;2023-03-01T15:44:27;107.00;;;96.65;;
41761;SDS011;27441;50.860;0.258;2023-03-01T15:46:53;51.28;;;46.70;;
41761;SDS011;27441;50.860;0.258;2023-03-01T15:49:39;162.52;;;112.32;;
41761;SDS011;27441;50.860;0.258;2023-03-01T15:52:13;700.42;;;168.20;;
41761;SDS011;27441;50.860;0.258;2023-03-01T15:59:36;152.20;;;88.20;;
41761;SDS011;27441;50.860;0.258;2023-03-01T16:04:29;346.08;;;263.92;;
41761;SDS011;27441;50.860;0.258;2023-03-01T16:06:55;51.35;;;47.35;;
41761;SDS011;27441;50.860;0.258;2023-03-01T16:09:22;103.20;;;94.80;;
41761;SDS011;27441;50.860;0.258;2023-03-01T16:11:48;63.60;;;58.60;;
41761;SDS011;27441;50.860;0.258;2023-03-01T16:14:14;281.70;;;217.90;;
41761;SDS011;27441;50.860;0.258;2023-03-01T16:16:41;125.50;;;113.82;;
41761;SDS011;27441;50.860;0.258;2023-03-01T16:19:07;1999.90;;;496.45;;
41761;SDS011;27441;50.860;0.258;2023-03-01T16:24:00;77.30;;;70.20;;
41761;SDS011;27441;50.860;0.258;2023-03-01T16:26:26;1999.90;;;276.90;;
41761;SDS011;27441;50.860;0.258;2023-03-01T16:33:44;1277.63;;;394.13;;
41761;SDS011;27441;50.860;0.258;2023-03-01T16:36:15;306.50;;;175.00;;
41761;SDS011;27441;50.860;0.258;2023-03-01T16:38:41;1253.15;;;295.75;;
41761;SDS011;27441;50.860;0.258;2023-03-01T16:41:14;529.10;;;418.60;;
41761;SDS011;27441;50.860;0.258;2023-03-01T16:48:32;1999.90;;;693.27;;
41761;SDS011;27441;50.860;0.258;2023-03-01T16:55:57;1555.80;;;347.30;;
41761;SDS011;27441;50.860;0.258;2023-03-01T17:05:42;971.80;;;296.40;;
41761;SDS011;27441;50.860;0.258;2023-03-01T17:08:08;1310.38;;;293.20;;
41761;SDS011;27441;50.860;0.258;2023-03-01T17:17:52;314.77;;;186.23;;
41761;SDS011;27441;50.860;0.258;2023-03-01T17:22:44;47.90;;;44.60;;
41761;SDS011;27441;50.860;0.258;2023-03-01T17:27:37;1328.65;;;303.52;;
41761;SDS011;27441;50.860;0.258;2023-03-01T17:32:29;1221.20;;;194.23;;
41761;SDS011;27441;50.860;0.258;2023-03-01T17:34:55;646.45;;;254.40;;
41761;SDS011;27441;50.860;0.258;2023-03-01T17:42:14;249.55;;;171.55;;
41761;SDS011;27441;50.860;0.258;2023-03-01T17:44:40;342.50;;;222.40;;
41761;SDS011;27441;50.860;0.258;2023-03-01T17:54:24;1999.90;;;409.90;;
41761;SDS011;27441;50.860;0.258;2023-03-01T18:01:42;75.20;;;69.10;;
41761;SDS011;27441;50.860;0.258;2023-03-01T18:09:01;228.10;;;172.55;;
41761;SDS011;27441;50.860;0.258;2023-03-01T18:11:27;822.40;;;224.73;;
41761;SDS011;27441;50.860;0.258;2023-03-01T18:23:37;1090.10;;;302.80;;
41761;SDS011;27441;50.860;0.258;2023-03-01T18:28:30;1505.22;;;396.20;;
41761;SDS011;27441;50.860;0.258;2023-03-01T18:30:57;446.45;;;234.95;;
41761;SDS011;27441;50.860;0.258;2023-03-01T18:35:49;544.22;;;307.17;;
41761;SDS011;27441;50.860;0.258;2023-03-01T18:40:42;0.80;;;0.80;;
41761;SDS011;27441;50.860;0.258;2023-03-01T18:43:08;0.70;;;0.70;;
41761;SDS011;27441;50.860;0.258;2023-03-01T18:45:34;486.77;;;401.08;;
41761;SDS011;27441;50.860;0.258;2023-03-01T18:48:00;835.20;;;423.80;;
41761;SDS011;27441;50.860;0.258;2023-03-01T18:52:53;0.70;;;0.70;;
41761;SDS011;27441;50.860;0.258;2023-03-01T18:57:45;334.88;;;179.43;;
41761;SDS011;27441;50.860;0.258;2023-03-01T19:00:12;249.52;;;223.80;;
41761;SDS011;27441;50.860;0.258;2023-03-01T19:02:38;604.22;;;285.73;;
41761;SDS011;27441;50.860;0.258;2023-03-01T19:05:04;289.45;;;214.98;;
41761;SDS011;27441;50.860;0.258;2023-03-01T19:07:30;582.42;;;202.35;;
41761;SDS011;27441;50.860;0.258;2023-03-01T19:09:56;361.15;;;210.38;;
41761;SDS011;27441;50.860;0.258;2023-03-01T19:12:23;159.68;;;143.65;;
41761;SDS011;27441;50.860;0.258;2023-03-01T19:14:49;0.47;;;0.47;;
41761;SDS011;27441;50.860;0.258;2023-03-01T19:17:15;1145.60;;;497.50;;
41761;SDS011;27441;50.860;0.258;2023-03-01T19:19:42;0.05;;;0.05;;
41761;SDS011;27441;50.860;0.258;2023-03-01T19:22:08;242.70;;;44.80;;
41761;SDS011;27441;50.860;0.258;2023-03-01T19:24:34;658.00;;;491.58;;
41761;SDS011;27441;50.860;0.258;2023-03-01T19:27:01;835.73;;;528.03;;
41761;SDS011;27441;50.860;0.258;2023-03-01T19:34:19;81.70;;;73.97;;
41761;SDS011;27441;50.860;0.258;2023-03-01T19:41:38;764.20;;;201.60;;
41761;SDS011;27441;50.860;0.258;2023-03-01T19:44:05;52.15;;;47.85;;
41761;SDS011;27441;50.860;0.258;2023-03-01T19:46:32;64.40;;;59.15;;
41761;SDS011;27441;50.860;0.258;2023-03-01T19:48:58;1188.20;;;471.10;;
41761;SDS011;27441;50.860;0.258;2023-03-01T19:53:53;407.00;;;372.00;;
41761;SDS011;27441;50.860;0.258;2023-03-01T19:56:19;56.78;;;52.53;;
41761;SDS011;27441;50.860;0.258;2023-03-01T19:58:45;1375.38;;;317.55;;
41761;SDS011;27441;50.860;0.258;2023-03-01T20:01:17;12.80;;;12.00;;
41761;SDS011;27441;50.860;0.258;2023-03-01T20:03:44;642.95;;;427.25;;
41761;SDS011;27441;50.860;0.258;2023-03-01T20:06:11;933.10;;;350.65;;
41761;SDS011;27441;50.860;0.258;2023-03-01T20:08:38;295.95;;;193.43;;
41761;SDS011;27441;50.860;0.258;2023-03-01T20:11:05;649.47;;;350.45;;
41761;SDS011;27441;50.860;0.258;2023-03-01T20:13:31;220.02;;;132.73;;
41761;SDS011;27441;50.860;0.258;2023-03-01T20:15:58;431.38;;;346.95;;
41761;SDS011;27441;50.860;0.258;2023-03-01T20:18:24;1999.90;;;649.85;;
41761;SDS011;27441;50.860;0.258;2023-03-01T20:20:51;1477.10;;;551.50;;
41761;SDS011;27441;50.860;0.258;2023-03-01T20:23:17;220.05;;;74.55;;
41761;SDS011;27441;50.860;0.258;2023-03-01T20:25:44;492.08;;;284.38;;
41761;SDS011;27441;50.860;0.258;2023-03-01T20:33:04;140.20;;;126.05;;
41761;SDS011;27441;50.860;0.258;2023-03-01T20:35:30;52.25;;;48.25;;
41761;SDS011;27441;50.860;0.258;2023-03-01T20:38:00;531.50;;;423.73;;
41761;SDS011;27441;50.860;0.258;2023-03-01T20:40:26;140.20;;;127.60;;
41761;SDS011;27441;50.860;0.258;2023-03-01T20:42:55;48.70;;;45.17;;
41761;SDS011;27441;50.860;0.258;2023-03-01T20:45:21;343.27;;;282.05;;
41761;SDS011;27441;50.860;0.258;2023-03-01T20:47:48;380.13;;;179.82;;
41761;SDS011;27441;50.860;0.258;2023-03-01T20:50:15;347.58;;;277.90;;
41761;SDS011;27441;50.860;0.258;2023-03-01T20:52:41;389.10;;;347.83;;